Time;durP1;ratioP1;P1;durP2;ratioP2;P2;SDS_P1;SDS_P2;PMS_P1;PMS_P2;Temp;Humidity;BMP_temperature;BMP_pressure;BME280_temperature;BME280_humidity;BME280_pressure;Samples;Min_cycle;Max_cycle;Signal;HPM_P1;HPM_P2
2024/02/14 00:01:54;;;;;;;13.80;9.43;;;;;;;;;;5045455;28;20174;-73
2024/02/14 00:04:20;;;;;;;11.43;9.30;;;;;;;;;;5047998;28;20194;-69
2024/02/14 00:06:45;;;;;;;12.67;9.27;;;;;;;;;;5053081;28;20739;-69
2024/02/14 00:09:11;;;;;;;10.57;9.47;;;;;;;;;;5042037;28;20262;-68
2024/02/14 00:11:36;;;;;;;14.83;10.70;;;;;;;;;;5051629;28;20180;-69
2024/02/14 00:14:02;;;;;;;12.17;9.57;;;;;;;;;;5026515;28;20551;-69
2024/02/14 00:16:30;;;;;;;15.97;10.43;;;;;;;;;;5047610;28;20177;-70
2024/02/14 00:18:55;;;;;;;14.03;10.67;;;;;;;;;;5044169;28;20269;-69
2024/02/14 00:21:20;;;;;;;14.83;10.30;;;;;;;;;;5034160;28;20260;-69
2024/02/14 00:23:45;;;;;;;15.07;11.30;;;;;;;;;;5048373;28;20284;-70
2024/02/14 00:26:11;;;;;;;16.60;10.53;;;;;;;;;;5036528;28;20553;-70
2024/02/14 00:28:36;;;;;;;14.73;10.80;;;;;;;;;;5029143;28;20174;-68
2024/02/14 00:31:01;;;;;;;16.57;11.87;;;;;;;;;;5025826;28;20188;-70
2024/02/14 00:33:26;;;;;;;15.27;11.13;;;;;;;;;;5042430;28;20198;-70
2024/02/14 00:35:51;;;;;;;15.67;12.07;;;;;;;;;;5049505;28;20660;-70
2024/02/14 00:38:17;;;;;;;18.17;11.43;;;;;;;;;;5030813;28;20273;-70
2024/02/14 00:40:42;;;;;;;14.67;11.73;;;;;;;;;;5031083;28;20220;-70
2024/02/14 00:43:07;;;;;;;14.50;11.03;;;;;;;;;;5047778;28;20601;-70
2024/02/14 00:45:32;;;;;;;17.03;11.40;;;;;;;;;;5031106;28;20235;-70
2024/02/14 00:47:58;;;;;;;15.07;11.77;;;;;;;;;;5046625;28;20689;-70
2024/02/14 00:50:23;;;;;;;14.97;11.60;;;;;;;;;;5045128;28;20185;-69
2024/02/14 00:52:48;;;;;;;16.23;12.37;;;;;;;;;;5015848;28;20181;-68
2024/02/14 00:55:13;;;;;;;15.73;11.43;;;;;;;;;;5029035;28;20177;-68
2024/02/14 00:57:38;;;;;;;16.43;11.20;;;;;;;;;;5038857;28;20264;-70
2024/02/14 01:00:06;;;;;;;14.37;11.40;;;;;;;;;;5043143;28;20679;-70
2024/02/14 01:02:31;;;;;;;15.73;11.43;;;;;;;;;;5021123;28;20207;-70
2024/02/14 01:04:56;;;;;;;13.77;10.97;;;;;;;;;;5047638;28;20288;-69
2024/02/14 01:07:21;;;;;;;15.77;11.47;;;;;;;;;;5052858;28;20204;-70
2024/02/14 01:09:47;;;;;;;15.50;11.37;;;;;;;;;;5045949;28;20537;-70
2024/02/14 01:12:12;;;;;;;14.63;11.63;;;;;;;;;;5027855;28;20178;-69
2024/02/14 01:14:37;;;;;;;17.30;11.83;;;;;;;;;;5051262;28;20576;-70
2024/02/14 01:17:03;;;;;;;18.90;12.70;;;;;;;;;;5034213;28;20177;-69
2024/02/14 01:19:29;;;;;;;17.10;12.13;;;;;;;;;;5049899;28;20181;-69
2024/02/14 01:21:54;;;;;;;19.53;12.50;;;;;;;;;;5050743;28;20191;-69
2024/02/14 01:24:20;;;;;;;16.97;12.60;;;;;;;;;;5034042;28;20207;-70
2024/02/14 01:26:45;;;;;;;19.40;11.87;;;;;;;;;;5022899;28;20202;-70
2024/02/14 01:29:10;;;;;;;18.13;12.43;;;;;;;;;;5027929;28;20178;-70
2024/02/14 01:31:35;;;;;;;16.37;13.37;;;;;;;;;;5027144;28;20177;-69
2024/02/14 01:34:03;;;;;;;18.37;13.23;;;;;;;;;;5049205;28;20221;-70
2024/02/14 01:36:28;;;;;;;16.33;12.60;;;;;;;;;;5048020;28;20558;-70
2024/02/14 01:38:54;;;;;;;16.63;12.30;;;;;;;;;;5029417;28;20207;-70
2024/02/14 01:41:21;;;;;;;17.60;11.83;;;;;;;;;;5049462;28;20182;-70
2024/02/14 01:43:46;;;;;;;18.07;12.43;;;;;;;;;;5048221;28;20209;-68
2024/02/14 01:46:11;;;;;;;16.03;11.80;;;;;;;;;;5041364;28;20590;-70
2024/02/14 01:48:39;;;;;;;17.23;12.47;;;;;;;;;;5045865;28;20265;-68
2024/02/14 01:51:04;;;;;;;18.13;12.03;;;;;;;;;;5049546;28;20452;-69
2024/02/14 01:53:30;;;;;;;18.30;12.47;;;;;;;;;;5050774;28;20644;-70
2024/02/14 01:55:56;;;;;;;16.90;12.43;;;;;;;;;;5042610;28;20178;-69
2024/02/14 01:58:22;;;;;;;17.10;12.60;;;;;;;;;;5045563;28;20649;-70
2024/02/14 02:00:47;;;;;;;23.43;13.87;;;;;;;;;;5045184;28;20184;-70
2024/02/14 02:03:13;;;;;;;15.60;12.80;;;;;;;;;;5043411;28;20198;-69
2024/02/14 02:05:38;;;;;;;19.80;12.63;;;;;;;;;;5051384;28;20165;-69
2024/02/14 02:08:03;;;;;;;17.43;12.40;;;;;;;;;;5032954;28;20197;-69
2024/02/14 02:10:29;;;;;;;16.87;12.90;;;;;;;;;;5048890;28;20181;-70
2024/02/14 02:12:58;;;;;;;20.23;13.00;;;;;;;;;;5032290;28;20177;-69
2024/02/14 02:15:23;;;;;;;17.50;12.33;;;;;;;;;;5031508;28;20185;-70
2024/02/14 02:17:52;;;;;;;17.43;12.20;;;;;;;;;;5043196;28;20193;-70
2024/02/14 02:20:17;;;;;;;21.40;13.60;;;;;;;;;;5046769;28;20189;-69
2024/02/14 02:22:47;;;;;;;20.63;13.70;;;;;;;;;;5031936;28;20186;-70
2024/02/14 02:25:12;;;;;;;19.57;13.03;;;;;;;;;;5045072;28;20178;-69
2024/02/14 02:27:37;;;;;;;18.40;14.00;;;;;;;;;;5046078;28;20205;-70
2024/02/14 02:30:04;;;;;;;17.33;12.57;;;;;;;;;;5050727;28;20169;-70
2024/02/14 02:32:29;;;;;;;18.67;12.37;;;;;;;;;;5051161;28;20550;-70
2024/02/14 02:34:56;;;;;;;18.90;12.27;;;;;;;;;;5049445;28;20194;-69
2024/02/14 02:37:21;;;;;;;20.90;13.97;;;;;;;;;;5042028;28;20189;-70
2024/02/14 02:39:46;;;;;;;18.00;12.97;;;;;;;;;;5041297;28;20186;-69
2024/02/14 02:42:14;;;;;;;18.80;13.30;;;;;;;;;;5028599;28;20202;-69
2024/02/14 02:44:39;;;;;;;17.10;12.80;;;;;;;;;;5045052;22;20234;-71
2024/02/14 02:47:04;;;;;;;17.53;13.03;;;;;;;;;;5027157;28;20202;-71
2024/02/14 02:49:30;;;;;;;19.10;13.33;;;;;;;;;;5029350;28;20520;-71
2024/02/14 02:51:55;;;;;;;19.13;14.03;;;;;;;;;;5011328;28;20677;-73
2024/02/14 02:54:23;;;;;;;20.23;13.13;;;;;;;;;;5016149;28;20575;-71
2024/02/14 02:56:48;;;;;;;18.83;12.73;;;;;;;;;;5025373;28;20190;-71
2024/02/14 02:59:16;;;;;;;20.40;13.20;;;;;;;;;;5026888;28;20567;-71
2024/02/14 03:01:42;;;;;;;22.20;13.73;;;;;;;;;;5011105;28;20202;-70
2024/02/14 03:04:08;;;;;;;19.67;13.50;;;;;;;;;;5027792;28;20205;-71
2024/02/14 03:06:33;;;;;;;19.37;12.00;;;;;;;;;;5023939;28;20206;-71
2024/02/14 03:08:58;;;;;;;17.90;13.13;;;;;;;;;;5028376;28;20562;-71
2024/02/14 03:11:25;;;;;;;20.83;13.00;;;;;;;;;;5024536;28;20186;-71
2024/02/14 03:13:51;;;;;;;17.83;13.10;;;;;;;;;;5022774;28;20206;-72
2024/02/14 03:16:17;;;;;;;17.77;12.43;;;;;;;;;;5023633;28;20170;-71
2024/02/14 03:18:42;;;;;;;29.37;12.93;;;;;;;;;;5023378;28;20458;-71
2024/02/14 03:21:07;;;;;;;21.73;12.23;;;;;;;;;;5024972;28;20312;-71
2024/02/14 03:23:32;;;;;;;21.83;13.00;;;;;;;;;;5008383;28;20277;-71
2024/02/14 03:25:58;;;;;;;18.10;12.67;;;;;;;;;;5023069;28;20534;-71
2024/02/14 03:28:23;;;;;;;17.90;12.60;;;;;;;;;;5030061;28;20221;-71
2024/02/14 03:30:48;;;;;;;20.70;12.73;;;;;;;;;;5009328;28;20175;-72
2024/02/14 03:33:13;;;;;;;18.37;11.87;;;;;;;;;;5027144;28;20185;-71
2024/02/14 03:35:39;;;;;;;24.73;13.17;;;;;;;;;;5023057;28;20178;-70
2024/02/14 03:38:04;;;;;;;23.03;12.90;;;;;;;;;;5029441;28;20188;-70
2024/02/14 03:40:30;;;;;;;20.97;13.00;;;;;;;;;;5028836;28;20175;-71
2024/02/14 03:42:55;;;;;;;21.87;12.70;;;;;;;;;;5010264;28;20269;-71
2024/02/14 03:45:21;;;;;;;18.33;12.27;;;;;;;;;;5021561;28;20583;-71
2024/02/14 03:47:46;;;;;;;20.20;13.37;;;;;;;;;;5029005;28;20252;-72
2024/02/14 03:50:11;;;;;;;21.45;13.52;;;;;;;;;;5028265;28;20646;-71
2024/02/14 03:52:36;;;;;;;23.50;13.07;;;;;;;;;;5008798;28;20309;-71
2024/02/14 03:55:02;;;;;;;23.92;12.57;;;;;;;;;;5017441;28;20579;-70
2024/02/14 03:57:30;;;;;;;21.90;12.03;;;;;;;;;;5018879;28;20203;-71
2024/02/14 03:59:55;;;;;;;24.00;12.32;;;;;;;;;;5024885;28;20212;-71
2024/02/14 04:02:21;;;;;;;18.95;13.48;;;;;;;;;;5027626;28;20273;-71
2024/02/14 04:04:46;;;;;;;23.60;12.88;;;;;;;;;;5023001;28;20210;-71
2024/02/14 04:07:12;;;;;;;20.43;11.37;;;;;;;;;;5030383;28;20260;-72
2024/02/14 04:09:37;;;;;;;20.92;11.25;;;;;;;;;;5014358;28;20182;-71
2024/02/14 04:12:02;;;;;;;17.97;11.50;;;;;;;;;;5030229;28;20258;-72
2024/02/14 04:14:28;;;;;;;18.58;11.63;;;;;;;;;;5024859;28;20193;-71
2024/02/14 04:16:53;;;;;;;20.30;11.07;;;;;;;;;;5028869;28;20178;-72
2024/02/14 04:19:18;;;;;;;19.90;11.67;;;;;;;;;;5031799;28;20668;-72
2024/02/14 04:21:43;;;;;;;19.50;11.50;;;;;;;;;;5033874;28;20208;-72
2024/02/14 04:24:09;;;;;;;20.23;11.10;;;;;;;;;;5008083;28;20674;-72
2024/02/14 04:26:34;;;;;;;20.43;12.37;;;;;;;;;;5012297;28;20631;-72
2024/02/14 04:28:59;;;;;;;24.55;12.57;;;;;;;;;;5013098;28;20175;-71
2024/02/14 04:31:26;;;;;;;23.52;11.52;;;;;;;;;;5030451;28;20191;-72
2024/02/14 04:33:53;;;;;;;20.40;11.60;;;;;;;;;;5013816;28;20256;-73
2024/02/14 04:36:19;;;;;;;17.40;10.47;;;;;;;;;;5034280;28;20182;-71
2024/02/14 04:38:45;;;;;;;16.63;10.68;;;;;;;;;;5033013;28;20190;-71
2024/02/14 04:41:10;;;;;;;27.83;12.43;;;;;;;;;;5024908;28;20698;-71
2024/02/14 04:43:35;;;;;;;18.20;10.88;;;;;;;;;;5025080;28;20203;-72
2024/02/14 04:46:00;;;;;;;16.07;9.57;;;;;;;;;;5011635;28;20681;-71
2024/02/14 04:48:26;;;;;;;14.43;9.27;;;;;;;;;;5030442;28;20305;-73
2024/02/14 04:50:52;;;;;;;20.27;10.35;;;;;;;;;;5030837;28;20175;-72
2024/02/14 04:53:17;;;;;;;16.05;10.30;;;;;;;;;;5024642;28;20685;-71
2024/02/14 04:55:42;;;;;;;14.60;10.05;;;;;;;;;;5032044;28;20575;-72
2024/02/14 04:58:08;;;;;;;18.95;10.57;;;;;;;;;;5009293;28;20568;-72
2024/02/14 05:00:33;;;;;;;17.90;9.75;;;;;;;;;;5023969;28;20179;-72
2024/02/14 05:02:58;;;;;;;17.05;10.80;;;;;;;;;;5028622;28;20221;-72
2024/02/14 05:05:23;;;;;;;18.70;11.32;;;;;;;;;;5027770;28;20182;-72
2024/02/14 05:07:48;;;;;;;22.08;12.65;;;;;;;;;;5031301;28;20238;-72
2024/02/14 05:10:14;;;;;;;18.80;11.02;;;;;;;;;;5028991;28;20180;-72
2024/02/14 05:12:39;;;;;;;18.67;11.35;;;;;;;;;;5030030;28;20586;-72
2024/02/14 05:15:05;;;;;;;16.13;10.57;;;;;;;;;;5023991;28;20553;-71
2024/02/14 05:17:30;;;;;;;20.23;10.10;;;;;;;;;;5026283;28;20178;-72
2024/02/14 05:19:56;;;;;;;23.52;11.57;;;;;;;;;;5026344;28;20300;-72
2024/02/14 05:22:22;;;;;;;18.30;10.57;;;;;;;;;;5009104;28;20650;-72
2024/02/14 05:24:47;;;;;;;16.55;10.27;;;;;;;;;;5003786;28;20261;-72
2024/02/14 05:27:13;;;;;;;15.75;10.93;;;;;;;;;;5029957;28;20280;-72
2024/02/14 05:29:38;;;;;;;16.80;10.18;;;;;;;;;;5025678;28;20174;-72
2024/02/14 05:32:04;;;;;;;15.60;9.43;;;;;;;;;;5030336;28;20241;-71
2024/02/14 05:34:29;;;;;;;19.23;9.88;;;;;;;;;;5030652;28;20205;-72
2024/02/14 05:36:54;;;;;;;15.20;8.98;;;;;;;;;;5019138;28;20291;-72
2024/02/14 05:39:19;;;;;;;16.17;10.65;;;;;;;;;;5031150;28;20186;-72
2024/02/14 05:41:44;;;;;;;14.48;9.73;;;;;;;;;;5031145;28;20597;-72
2024/02/14 05:44:10;;;;;;;15.25;9.85;;;;;;;;;;5029536;28;20217;-72
2024/02/14 05:46:35;;;;;;;14.30;9.15;;;;;;;;;;5028791;28;20281;-72
2024/02/14 05:49:00;;;;;;;12.90;8.57;;;;;;;;;;5013930;28;20265;-71
2024/02/14 05:51:26;;;;;;;14.80;8.82;;;;;;;;;;5030215;28;20649;-72
2024/02/14 05:53:51;;;;;;;17.05;8.82;;;;;;;;;;5023999;28;20289;-72
2024/02/14 05:56:16;;;;;;;15.32;8.45;;;;;;;;;;5024390;28;20177;-72
2024/02/14 05:58:41;;;;;;;13.85;9.68;;;;;;;;;;5030190;28;20170;-72
2024/02/14 06:01:06;;;;;;;13.95;9.05;;;;;;;;;;5016969;28;20670;-72
2024/02/14 06:03:32;;;;;;;11.70;8.80;;;;;;;;;;5006034;28;20209;-71
2024/02/14 06:05:57;;;;;;;12.43;9.10;;;;;;;;;;5019277;28;20186;-71
2024/02/14 06:08:23;;;;;;;14.05;9.23;;;;;;;;;;5012402;28;20210;-71
2024/02/14 06:10:48;;;;;;;12.93;9.02;;;;;;;;;;5014871;28;20191;-72
2024/02/14 06:13:14;;;;;;;13.73;9.40;;;;;;;;;;5020213;28;20231;-72
2024/02/14 06:15:39;;;;;;;14.98;10.45;;;;;;;;;;5019446;28;20627;-71
2024/02/14 06:18:04;;;;;;;19.25;11.00;;;;;;;;;;5021950;28;22115;-71
2024/02/14 06:20:29;;;;;;;17.48;12.00;;;;;;;;;;5022184;28;20193;-71
2024/02/14 06:22:55;;;;;;;18.45;11.43;;;;;;;;;;5030787;28;20178;-72
2024/02/14 06:25:20;;;;;;;17.38;11.77;;;;;;;;;;5030093;28;20209;-71
2024/02/14 06:27:45;;;;;;;20.92;12.20;;;;;;;;;;5028718;28;20897;-72
2024/02/14 06:30:10;;;;;;;21.63;13.25;;;;;;;;;;5011583;28;20190;-72
2024/02/14 06:32:36;;;;;;;22.35;12.98;;;;;;;;;;5007562;28;20615;-72
2024/02/14 06:35:01;;;;;;;19.65;12.32;;;;;;;;;;5020590;28;20209;-71
2024/02/14 06:37:26;;;;;;;18.58;12.13;;;;;;;;;;5008468;28;20205;-72
2024/02/14 06:39:52;;;;;;;20.15;12.60;;;;;;;;;;5026584;28;20182;-71
2024/02/14 06:42:17;;;;;;;22.85;14.05;;;;;;;;;;5029877;28;20319;-71
2024/02/14 06:44:42;;;;;;;25.08;13.73;;;;;;;;;;5011416;28;20214;-72
2024/02/14 06:47:08;;;;;;;23.65;14.32;;;;;;;;;;5029205;28;20190;-71
2024/02/14 06:49:33;;;;;;;26.58;14.23;;;;;;;;;;5023821;28;20178;-72
2024/02/14 06:51:58;;;;;;;27.55;14.95;;;;;;;;;;5018582;28;20556;-72
2024/02/14 06:54:23;;;;;;;28.98;14.27;;;;;;;;;;5011877;28;20289;-72
2024/02/14 06:56:48;;;;;;;28.90;13.55;;;;;;;;;;5028504;28;20178;-72
2024/02/14 06:59:14;;;;;;;22.38;14.00;;;;;;;;;;5030087;28;20178;-72
2024/02/14 07:01:39;;;;;;;22.40;13.48;;;;;;;;;;5022486;28;20265;-72
2024/02/14 07:04:04;;;;;;;27.63;14.80;;;;;;;;;;5011212;28;20206;-71
2024/02/14 07:06:30;;;;;;;22.40;14.82;;;;;;;;;;5028226;28;20277;-72
2024/02/14 07:08:55;;;;;;;23.17;14.15;;;;;;;;;;5024125;28;20186;-72
2024/02/14 07:11:20;;;;;;;27.00;15.00;;;;;;;;;;5028070;28;20373;-71
2024/02/14 07:13:46;;;;;;;25.75;13.70;;;;;;;;;;5027954;28;20198;-71
2024/02/14 07:16:11;;;;;;;25.90;14.63;;;;;;;;;;5026691;28;20174;-71
2024/02/14 07:18:36;;;;;;;23.38;13.40;;;;;;;;;;5029028;28;20257;-72
2024/02/14 07:21:02;;;;;;;21.35;13.77;;;;;;;;;;5030033;28;20253;-71
2024/02/14 07:23:27;;;;;;;24.70;14.02;;;;;;;;;;5027882;28;20190;-72
2024/02/14 07:25:52;;;;;;;23.20;14.48;;;;;;;;;;5029859;28;20668;-71
2024/02/14 07:28:17;;;;;;;22.83;13.63;;;;;;;;;;5003282;28;20211;-71
2024/02/14 07:30:43;;;;;;;21.52;13.63;;;;;;;;;;5027435;28;20178;-72
2024/02/14 07:33:09;;;;;;;23.17;13.52;;;;;;;;;;5030048;28;20174;-72
2024/02/14 07:35:34;;;;;;;24.45;13.60;;;;;;;;;;5011595;28;20170;-71
2024/02/14 07:37:59;;;;;;;22.52;13.75;;;;;;;;;;5027579;28;20178;-72
2024/02/14 07:40:25;;;;;;;22.17;14.55;;;;;;;;;;5030554;28;20248;-72
2024/02/14 07:42:50;;;;;;;25.77;14.85;;;;;;;;;;5033998;28;20179;-70
2024/02/14 07:45:16;;;;;;;20.38;13.40;;;;;;;;;;5029161;28;20214;-72
2024/02/14 07:47:42;;;;;;;22.45;13.52;;;;;;;;;;5029340;28;20197;-72
2024/02/14 07:50:07;;;;;;;21.00;12.95;;;;;;;;;;5033630;28;20175;-72
2024/02/14 07:52:32;;;;;;;18.38;12.63;;;;;;;;;;5033479;28;20197;-72
2024/02/14 07:54:58;;;;;;;18.73;12.43;;;;;;;;;;5009230;28;20206;-72
2024/02/14 07:57:24;;;;;;;18.85;12.70;;;;;;;;;;5029863;28;20265;-72
2024/02/14 07:59:50;;;;;;;20.70;13.23;;;;;;;;;;5012937;28;20182;-70
2024/02/14 08:02:15;;;;;;;18.42;11.98;;;;;;;;;;5029062;28;20510;-72
2024/02/14 08:04:40;;;;;;;18.85;11.88;;;;;;;;;;5014347;28;20683;-72
2024/02/14 08:07:05;;;;;;;17.50;12.07;;;;;;;;;;5033011;28;20686;-71
2024/02/14 08:09:30;;;;;;;17.65;12.10;;;;;;;;;;5014916;28;20175;-71
2024/02/14 08:11:56;;;;;;;18.20;11.20;;;;;;;;;;5015084;28;20177;-71
2024/02/14 08:14:21;;;;;;;21.02;12.00;;;;;;;;;;5032532;28;20198;-71
2024/02/14 08:16:47;;;;;;;17.88;11.52;;;;;;;;;;5031295;28;20190;-71
2024/02/14 08:19:12;;;;;;;25.80;13.00;;;;;;;;;;5014871;28;20185;-71
2024/02/14 08:21:37;;;;;;;22.23;12.20;;;;;;;;;;5027125;28;20292;-71
2024/02/14 08:24:02;;;;;;;18.80;12.77;;;;;;;;;;5030152;28;20259;-71
2024/02/14 08:26:28;;;;;;;19.60;13.52;;;;;;;;;;5032537;28;20201;-72
2024/02/14 08:28:53;;;;;;;18.52;12.18;;;;;;;;;;5032277;28;20186;-72
2024/02/14 08:31:19;;;;;;;25.50;13.38;;;;;;;;;;5032738;28;20167;-72
2024/02/14 08:33:44;;;;;;;20.83;14.15;;;;;;;;;;5032745;28;20206;-71
2024/02/14 08:36:09;;;;;;;23.65;14.15;;;;;;;;;;5013233;28;20189;-71
2024/02/14 08:38:35;;;;;;;23.90;15.15;;;;;;;;;;5033217;28;20176;-71
2024/02/14 08:41:01;;;;;;;20.65;14.13;;;;;;;;;;5014766;28;20228;-71
2024/02/14 08:43:28;;;;;;;19.75;13.05;;;;;;;;;;5023737;28;20195;-71
2024/02/14 08:45:53;;;;;;;20.65;12.52;;;;;;;;;;5008161;28;20174;-72
2024/02/14 08:48:19;;;;;;;20.27;13.02;;;;;;;;;;5032120;28;20584;-71
2024/02/14 08:50:45;;;;;;;25.35;13.63;;;;;;;;;;5007970;28;20554;-71
2024/02/14 08:53:12;;;;;;;17.77;12.82;;;;;;;;;;5020692;28;20202;-73
2024/02/14 08:55:38;;;;;;;19.63;12.45;;;;;;;;;;5010322;28;20189;-73
2024/02/14 08:58:03;;;;;;;18.58;12.50;;;;;;;;;;5024540;28;20283;-72
2024/02/14 09:00:30;;;;;;;20.98;13.05;;;;;;;;;;5029602;28;20276;-73
2024/02/14 09:02:55;;;;;;;19.83;12.05;;;;;;;;;;5026635;28;20659;-73
2024/02/14 09:05:22;;;;;;;21.33;12.98;;;;;;;;;;5026032;28;20248;-72
2024/02/14 09:07:47;;;;;;;19.48;12.52;;;;;;;;;;5015713;28;20871;-73
2024/02/14 09:10:12;;;;;;;20.27;12.45;;;;;;;;;;5023967;28;20197;-73
2024/02/14 09:12:38;;;;;;;19.15;14.10;;;;;;;;;;5010984;28;20324;-73
2024/02/14 09:15:04;;;;;;;18.70;12.38;;;;;;;;;;5026783;28;20202;-73
2024/02/14 09:17:29;;;;;;;24.80;13.80;;;;;;;;;;5011529;28;20187;-74
2024/02/14 09:19:55;;;;;;;20.38;12.82;;;;;;;;;;5028244;28;20260;-74
2024/02/14 09:22:21;;;;;;;20.58;13.15;;;;;;;;;;5024377;28;20600;-74
2024/02/14 09:24:50;;;;;;;20.40;13.95;;;;;;;;;;5011359;28;20293;-74
2024/02/14 09:27:15;;;;;;;23.15;15.18;;;;;;;;;;5026653;28;20198;-74
2024/02/14 09:29:40;;;;;;;24.05;14.63;;;;;;;;;;5026621;28;20185;-74
2024/02/14 09:32:06;;;;;;;21.88;14.55;;;;;;;;;;5027018;28;20666;-74
2024/02/14 09:34:31;;;;;;;22.92;14.00;;;;;;;;;;5026085;28;21148;-73
2024/02/14 09:36:58;;;;;;;21.77;12.85;;;;;;;;;;5030556;28;20653;-74
2024/02/14 09:39:23;;;;;;;21.73;13.02;;;;;;;;;;5029093;28;20195;-73
2024/02/14 09:41:55;;;;;;;21.70;13.77;;;;;;;;;;5027299;28;20178;-73
2024/02/14 09:44:21;;;;;;;18.95;11.85;;;;;;;;;;5028270;28;20756;-74
2024/02/14 09:46:46;;;;;;;19.35;11.25;;;;;;;;;;5026240;28;20328;-73
2024/02/14 09:49:12;;;;;;;16.42;11.30;;;;;;;;;;5031351;28;20201;-74
2024/02/14 09:51:38;;;;;;;17.05;11.77;;;;;;;;;;5030012;28;20174;-74
2024/02/14 09:54:03;;;;;;;16.48;10.98;;;;;;;;;;5029238;28;20190;-74
2024/02/14 09:56:29;;;;;;;15.50;10.88;;;;;;;;;;5024163;28;20198;-74
2024/02/14 09:58:57;;;;;;;15.43;9.52;;;;;;;;;;5024330;28;20182;-73
2024/02/14 10:01:24;;;;;;;12.05;9.45;;;;;;;;;;5026943;28;20174;-73
2024/02/14 10:03:54;;;;;;;13.80;9.65;;;;;;;;;;5027070;28;20206;-73
2024/02/14 10:06:20;;;;;;;15.07;10.15;;;;;;;;;;5027503;28;20170;-73
2024/02/14 10:08:46;;;;;;;16.35;10.30;;;;;;;;;;5025619;28;20198;-73
2024/02/14 10:11:14;;;;;;;15.13;9.65;;;;;;;;;;5025179;28;20218;-73
2024/02/14 10:13:39;;;;;;;15.60;9.85;;;;;;;;;;5007664;28;20195;-72
2024/02/14 10:16:07;;;;;;;17.33;10.57;;;;;;;;;;5021075;28;20638;-73
2024/02/14 10:18:32;;;;;;;13.93;9.48;;;;;;;;;;5026740;28;20183;-72
2024/02/14 10:20:57;;;;;;;18.13;9.63;;;;;;;;;;5026274;28;20260;-71
2024/02/14 10:23:23;;;;;;;14.95;9.43;;;;;;;;;;5026267;28;20251;-73
2024/02/14 10:25:50;;;;;;;15.23;9.70;;;;;;;;;;5025305;28;20252;-73
2024/02/14 10:28:16;;;;;;;13.05;9.80;;;;;;;;;;5026744;28;20209;-75
2024/02/14 10:30:45;;;;;;;12.52;9.98;;;;;;;;;;5007575;28;20630;-74
2024/02/14 10:33:10;;;;;;;15.50;9.40;;;;;;;;;;5029655;28;20179;-73
2024/02/14 10:35:37;;;;;;;16.38;9.75;;;;;;;;;;5026656;28;20224;-73
2024/02/14 10:38:02;;;;;;;14.15;10.02;;;;;;;;;;5025540;28;20262;-73
2024/02/14 10:40:28;;;;;;;13.65;9.80;;;;;;;;;;5009322;28;20276;-74
2024/02/14 10:42:54;;;;;;;13.98;8.70;;;;;;;;;;5022972;28;20560;-73
2024/02/14 10:45:20;;;;;;;12.63;8.32;;;;;;;;;;5023884;28;20210;-73
2024/02/14 10:47:48;;;;;;;11.55;8.77;;;;;;;;;;5030311;28;20213;-73
2024/02/14 10:50:14;;;;;;;12.40;8.98;;;;;;;;;;5030174;28;20584;-73
2024/02/14 10:52:40;;;;;;;15.18;9.32;;;;;;;;;;5024331;28;20177;-73
2024/02/14 10:55:06;;;;;;;10.38;7.70;;;;;;;;;;5025613;28;20271;-73
2024/02/14 10:57:34;;;;;;;11.13;7.60;;;;;;;;;;5021029;28;20710;-73
2024/02/14 11:00:02;;;;;;;12.68;8.40;;;;;;;;;;5028273;28;20661;-72
2024/02/14 11:02:30;;;;;;;10.85;7.40;;;;;;;;;;5026653;28;20260;-73
2024/02/14 11:04:55;;;;;;;10.07;7.32;;;;;;;;;;5024564;28;20202;-73
2024/02/14 11:07:24;;;;;;;10.30;6.63;;;;;;;;;;5026743;28;20198;-73
2024/02/14 11:10:09;;;;;;;10.82;7.30;;;;;;;;;;5021999;28;20614;-73
2024/02/14 11:12:41;;;;;;;9.63;6.88;;;;;;;;;;5026335;28;20190;-73
2024/02/14 11:15:17;;;;;;;9.00;6.63;;;;;;;;;;5030625;28;20720;-73
2024/02/14 11:17:43;;;;;;;9.90;6.63;;;;;;;;;;5032603;28;20264;-74
2024/02/14 11:20:31;;;;;;;10.63;6.72;;;;;;;;;;5031755;28;20191;-73
2024/02/14 11:22:57;;;;;;;10.13;6.90;;;;;;;;;;5003419;28;20224;-73
2024/02/14 11:25:24;;;;;;;8.45;6.53;;;;;;;;;;5014857;28;20212;-73
2024/02/14 11:27:50;;;;;;;9.68;7.57;;;;;;;;;;5033537;28;20777;-73
2024/02/14 11:30:26;;;;;;;15.00;7.72;;;;;;;;;;5027184;28;20647;-73
2024/02/14 11:32:52;;;;;;;9.38;7.18;;;;;;;;;;5034336;28;20174;-73
2024/02/14 11:35:18;;;;;;;8.75;6.85;;;;;;;;;;5033114;28;20194;-73
2024/02/14 11:37:43;;;;;;;8.88;6.97;;;;;;;;;;5031491;28;20556;-73
2024/02/14 11:40:09;;;;;;;10.32;6.88;;;;;;;;;;5030967;28;20190;-73
2024/02/14 11:42:34;;;;;;;10.73;7.55;;;;;;;;;;5033074;28;20256;-73
2024/02/14 11:45:00;;;;;;;11.88;7.72;;;;;;;;;;5030600;28;20264;-73
2024/02/14 11:47:26;;;;;;;8.90;7.28;;;;;;;;;;5017386;28;20252;-73
2024/02/14 11:49:52;;;;;;;12.05;7.97;;;;;;;;;;5024359;28;20243;-71
2024/02/14 11:52:17;;;;;;;9.07;7.57;;;;;;;;;;5028979;28;20206;-71
2024/02/14 11:54:47;;;;;;;13.65;8.38;;;;;;;;;;5032002;28;20225;-72
2024/02/14 11:57:12;;;;;;;15.57;9.68;;;;;;;;;;5014973;28;20221;-72
2024/02/14 11:59:38;;;;;;;9.73;7.28;;;;;;;;;;5028602;28;20272;-71
2024/02/14 12:02:03;;;;;;;9.73;6.90;;;;;;;;;;5014153;28;20182;-71
2024/02/14 12:04:29;;;;;;;10.13;7.45;;;;;;;;;;5011356;28;20202;-71
2024/02/14 12:06:54;;;;;;;9.23;6.90;;;;;;;;;;5032644;28;20285;-72
2024/02/14 12:09:20;;;;;;;11.65;7.40;;;;;;;;;;5028388;28;20174;-72
2024/02/14 12:11:46;;;;;;;10.10;7.65;;;;;;;;;;5029630;28;20273;-72
2024/02/14 12:14:12;;;;;;;9.88;7.85;;;;;;;;;;5027595;28;20232;-73
2024/02/14 12:16:39;;;;;;;9.50;6.90;;;;;;;;;;5032075;28;20210;-72
2024/02/14 12:19:09;;;;;;;7.50;6.55;;;;;;;;;;5026592;28;20177;-72
2024/02/14 12:21:37;;;;;;;8.75;6.78;;;;;;;;;;5029383;28;20170;-72
2024/02/14 12:24:09;;;;;;;9.07;7.18;;;;;;;;;;5029408;28;20706;-72
2024/02/14 12:26:36;;;;;;;9.23;7.18;;;;;;;;;;5030196;28;20185;-71
2024/02/14 12:29:03;;;;;;;8.50;6.60;;;;;;;;;;5010755;28;20182;-71
2024/02/14 12:31:30;;;;;;;10.18;6.63;;;;;;;;;;5024566;28;20304;-71
2024/02/14 12:33:56;;;;;;;8.75;6.53;;;;;;;;;;5030282;28;20569;-71
2024/02/14 12:36:21;;;;;;;9.23;6.07;;;;;;;;;;5025700;28;20174;-72
2024/02/14 12:38:46;;;;;;;9.52;6.70;;;;;;;;;;5029639;28;20185;-72
2024/02/14 12:41:11;;;;;;;10.45;7.38;;;;;;;;;;5028206;28;20724;-72
2024/02/14 12:43:37;;;;;;;9.15;6.60;;;;;;;;;;5025857;28;20689;-72
2024/02/14 12:46:04;;;;;;;8.43;6.60;;;;;;;;;;5028959;28;20228;-71
2024/02/14 12:48:29;;;;;;;9.00;7.47;;;;;;;;;;5032345;28;20198;-72
2024/02/14 12:50:56;;;;;;;8.75;6.95;;;;;;;;;;5029594;28;20182;-73
2024/02/14 12:53:21;;;;;;;8.77;6.95;;;;;;;;;;5020085;28;20234;-72
2024/02/14 12:55:47;;;;;;;10.00;7.65;;;;;;;;;;5026304;28;20261;-71
2024/02/14 12:58:12;;;;;;;8.73;6.85;;;;;;;;;;5024109;28;20186;-71
2024/02/14 13:00:37;;;;;;;9.70;6.75;;;;;;;;;;5024700;28;20193;-71
2024/02/14 13:03:04;;;;;;;9.10;7.13;;;;;;;;;;5009905;28;20221;-71
2024/02/14 13:05:30;;;;;;;7.97;6.43;;;;;;;;;;5020989;28;20182;-70
2024/02/14 13:07:55;;;;;;;10.18;6.88;;;;;;;;;;5026471;28;20264;-71
2024/02/14 13:10:20;;;;;;;8.15;7.22;;;;;;;;;;5009509;28;20177;-71
2024/02/14 13:12:45;;;;;;;9.30;7.55;;;;;;;;;;5023920;28;20178;-71
2024/02/14 13:15:10;;;;;;;8.32;6.47;;;;;;;;;;5027387;28;20273;-71
2024/02/14 13:17:36;;;;;;;8.93;6.70;;;;;;;;;;5024811;28;20700;-71
2024/02/14 13:20:01;;;;;;;7.32;6.15;;;;;;;;;;5025623;28;20189;-71
2024/02/14 13:22:27;;;;;;;9.30;6.60;;;;;;;;;;5021446;28;20215;-71
2024/02/14 13:24:52;;;;;;;7.32;5.90;;;;;;;;;;5022969;28;20281;-70
2024/02/14 13:27:19;;;;;;;7.63;6.25;;;;;;;;;;5024978;28;20681;-72
2024/02/14 13:29:45;;;;;;;8.07;6.53;;;;;;;;;;5026647;28;20696;-71
2024/02/14 13:32:10;;;;;;;10.43;8.00;;;;;;;;;;5000543;28;20181;-70
2024/02/14 13:34:35;;;;;;;11.00;7.45;;;;;;;;;;5003867;28;20202;-72
2024/02/14 13:37:02;;;;;;;8.65;6.72;;;;;;;;;;5025732;28;20221;-71
2024/02/14 13:39:27;;;;;;;9.20;6.55;;;;;;;;;;5027208;28;20659;-72
2024/02/14 13:41:52;;;;;;;10.98;7.35;;;;;;;;;;5026127;28;20240;-71
2024/02/14 13:44:18;;;;;;;9.93;7.50;;;;;;;;;;5025742;28;20263;-72
2024/02/14 13:46:43;;;;;;;10.10;7.22;;;;;;;;;;5026931;28;20174;-71
2024/02/14 13:49:10;;;;;;;9.43;7.43;;;;;;;;;;5026458;28;20658;-71
2024/02/14 13:51:36;;;;;;;8.23;6.82;;;;;;;;;;5024422;28;20187;-71
2024/02/14 13:54:01;;;;;;;15.35;7.70;;;;;;;;;;5025688;28;20747;-71
2024/02/14 13:56:26;;;;;;;8.88;6.38;;;;;;;;;;5024481;28;20591;-70
2024/02/14 13:58:51;;;;;;;8.02;6.43;;;;;;;;;;5011057;28;20619;-70
2024/02/14 14:01:17;;;;;;;9.30;6.90;;;;;;;;;;5030469;28;20202;-72
2024/02/14 14:03:42;;;;;;;9.43;7.40;;;;;;;;;;5006059;28;20207;-72
2024/02/14 14:06:08;;;;;;;11.02;7.70;;;;;;;;;;5021134;28;20240;-71
2024/02/14 14:08:36;;;;;;;7.85;6.30;;;;;;;;;;5025708;28;20225;-72
2024/02/14 14:11:04;;;;;;;9.07;6.40;;;;;;;;;;5028410;28;20194;-71
2024/02/14 14:13:30;;;;;;;10.38;6.45;;;;;;;;;;5016805;28;20226;-70
2024/02/14 14:15:56;;;;;;;10.50;6.47;;;;;;;;;;5008708;28;20182;-71